createdAt,value
2023-03-31T00:01:33.936Z,10.32
2023-03-31T00:04:04.943Z,10.32
2023-03-31T00:06:37.983Z,10.32
2023-03-31T00:09:07.156Z,10.32
2023-03-31T00:11:36.467Z,10.32
2023-03-31T00:14:07.092Z,10.34
2023-03-31T00:16:35.279Z,10.33
2023-03-31T00:19:03.339Z,10.34
2023-03-31T00:21:33.919Z,10.36
2023-03-31T00:24:04.025Z,10.37
2023-03-31T00:26:32.531Z,10.39
2023-03-31T00:29:02.548Z,10.41
2023-03-31T00:31:30.660Z,10.41
2023-03-31T00:33:58.580Z,10.42
2023-03-31T00:36:28.344Z,10.40
2023-03-31T00:38:59.178Z,10.41
2023-03-31T00:41:27.413Z,10.40
2023-03-31T00:44:09.562Z,10.40
2023-03-31T00:46:41.813Z,10.40
2023-03-31T00:49:18.147Z,10.40
2023-03-31T00:51:46.810Z,10.40
2023-03-31T00:54:15.424Z,10.39
2023-03-31T00:56:46.561Z,10.39
2023-03-31T00:59:16.463Z,10.37
2023-03-31T01:01:50.605Z,10.37
2023-03-31T01:04:22.738Z,10.38
2023-03-31T01:07:00.860Z,10.40
2023-03-31T01:09:34.834Z,10.39
2023-03-31T01:12:04.674Z,10.41
2023-03-31T01:14:34.265Z,10.38
2023-03-31T01:17:02.834Z,10.40
2023-03-31T01:19:46.113Z,10.42
2023-03-31T01:22:46.157Z,10.45
2023-03-31T01:25:42.696Z,10.47
2023-03-31T01:28:20.324Z,10.46
2023-03-31T01:31:30.760Z,10.50
2023-03-31T01:34:28.865Z,10.48
2023-03-31T01:37:23.284Z,10.45
2023-03-31T01:40:20.791Z,10.47
2023-03-31T01:42:57.131Z,10.49
2023-03-31T01:45:35.932Z,10.52
2023-03-31T01:48:13.029Z,10.50
2023-03-31T01:50:47.868Z,10.51
2023-03-31T01:53:22.046Z,10.50
2023-03-31T01:55:59.166Z,10.50
2023-03-31T01:58:33.615Z,10.49
2023-03-31T02:01:07.561Z,10.48
2023-03-31T02:03:39.991Z,10.48
2023-03-31T02:06:13.398Z,10.49
2023-03-31T02:08:45.333Z,10.47
2023-03-31T02:11:13.397Z,10.43
2023-03-31T02:13:46.938Z,10.44
2023-03-31T02:16:22.017Z,10.44
2023-03-31T02:18:53.141Z,10.46
2023-03-31T02:21:22.808Z,10.45
2023-03-31T02:23:52.325Z,10.47
2023-03-31T02:26:24.846Z,10.47
2023-03-31T02:28:54.090Z,10.44
2023-03-31T02:31:28.782Z,10.42
2023-03-31T02:33:56.828Z,10.41
2023-03-31T02:36:25.370Z,10.40
2023-03-31T02:38:57.799Z,10.40
2023-03-31T02:41:25.849Z,10.40
2023-03-31T02:43:54.982Z,10.39
2023-03-31T02:46:23.288Z,10.38
2023-03-31T02:48:54.570Z,10.37
2023-03-31T02:51:54.917Z,10.35
2023-03-31T02:54:39.574Z,10.33
2023-03-31T02:57:24.402Z,10.32
2023-03-31T03:00:08.167Z,10.30
2023-03-31T03:02:45.975Z,10.30
2023-03-31T03:05:24.904Z,10.28
2023-03-31T03:08:00.418Z,10.28
2023-03-31T03:10:36.488Z,10.27
2023-03-31T03:13:10.697Z,10.24
2023-03-31T03:15:46.205Z,10.23
2023-03-31T03:18:14.968Z,10.22
2023-03-31T03:20:48.462Z,10.22
2023-03-31T03:23:16.787Z,10.22
2023-03-31T03:25:44.960Z,10.21
2023-03-31T03:28:12.805Z,10.22
2023-03-31T03:30:42.050Z,10.21
2023-03-31T03:33:09.932Z,10.21
2023-03-31T03:35:37.787Z,10.22
2023-03-31T03:38:05.584Z,10.23
2023-03-31T03:40:33.439Z,10.21
2023-03-31T03:43:01.286Z,10.20
2023-03-31T03:45:29.041Z,10.19
2023-03-31T03:47:58.222Z,10.16
2023-03-31T03:50:26.435Z,10.16
2023-03-31T03:52:54.207Z,10.14
2023-03-31T03:55:21.954Z,10.11
2023-03-31T03:57:49.729Z,10.10
2023-03-31T04:00:18.244Z,10.06
2023-03-31T04:02:46.206Z,10.07
2023-03-31T04:05:15.570Z,10.07
2023-03-31T04:07:43.492Z,10.00
2023-03-31T04:10:11.844Z,10.03
2023-03-31T04:12:39.671Z,10.01
2023-03-31T04:15:08.523Z,10.00
2023-03-31T04:17:37.554Z,9.98
2023-03-31T04:20:09.770Z,10.00
2023-03-31T04:22:41.624Z,9.99
2023-03-31T04:25:14.971Z,9.98
2023-03-31T04:27:46.677Z,9.95
2023-03-31T04:30:22.644Z,9.98
2023-03-31T04:32:53.371Z,9.97
2023-03-31T04:35:22.141Z,9.99
2023-03-31T04:37:59.149Z,9.97
2023-03-31T04:40:27.519Z,10.01
2023-03-31T04:42:55.380Z,9.97
2023-03-31T04:45:23.112Z,9.97
2023-03-31T04:47:51.023Z,9.98
2023-03-31T04:50:18.931Z,9.99
2023-03-31T04:52:46.662Z,9.99
2023-03-31T04:55:16.224Z,9.95
2023-03-31T04:57:43.999Z,9.96
2023-03-31T05:00:13.041Z,9.94
2023-03-31T05:02:40.883Z,9.93
2023-03-31T05:05:11.994Z,9.92
2023-03-31T05:07:39.784Z,9.93
2023-03-31T05:10:08.826Z,9.95
2023-03-31T05:12:38.795Z,9.93
2023-03-31T05:15:08.448Z,9.89
2023-03-31T05:17:37.057Z,9.90
2023-03-31T05:20:08.153Z,9.92
2023-03-31T05:22:37.794Z,9.92
2023-03-31T05:25:07.646Z,9.91
2023-03-31T05:27:37.164Z,9.90
2023-03-31T05:30:06.218Z,9.90
2023-03-31T05:32:34.080Z,9.91
2023-03-31T05:35:02.179Z,9.92
2023-03-31T05:37:29.947Z,9.90
2023-03-31T05:39:57.669Z,9.89
2023-03-31T05:42:25.540Z,9.88
2023-03-31T05:44:54.692Z,9.89
2023-03-31T05:47:23.195Z,9.91
2023-03-31T05:49:50.994Z,9.87
2023-03-31T05:52:19.019Z,9.87
2023-03-31T05:54:46.831Z,9.88
2023-03-31T05:57:14.700Z,9.87
2023-03-31T05:59:42.593Z,9.88
2023-03-31T06:02:14.452Z,9.89
2023-03-31T06:04:43.727Z,9.87
2023-03-31T06:07:11.555Z,9.85
2023-03-31T06:09:39.285Z,9.84
2023-03-31T06:12:08.489Z,9.83
2023-03-31T06:14:36.260Z,9.87
2023-03-31T06:17:04.075Z,9.88
2023-03-31T06:19:33.313Z,9.86
2023-03-31T06:22:01.617Z,9.86
2023-03-31T06:24:29.518Z,9.89
2023-03-31T06:26:57.304Z,9.90
2023-03-31T06:29:25.330Z,9.89
2023-03-31T06:31:53.167Z,9.89
2023-03-31T06:34:21.582Z,9.90
2023-03-31T06:36:51.044Z,9.89
2023-03-31T06:39:18.817Z,9.90
2023-03-31T06:41:46.573Z,9.93
2023-03-31T06:44:16.571Z,9.91
2023-03-31T06:46:44.441Z,9.92
2023-03-31T06:49:12.273Z,9.91
2023-03-31T06:51:39.978Z,9.90
2023-03-31T06:54:09.148Z,9.93
2023-03-31T06:56:36.883Z,9.92
2023-03-31T06:59:04.641Z,9.93
2023-03-31T07:01:32.684Z,9.98
2023-03-31T07:04:00.479Z,9.99
2023-03-31T07:06:28.226Z,10.03
2023-03-31T07:08:57.029Z,10.03
2023-03-31T07:11:26.227Z,10.01
2023-03-31T07:13:54.034Z,10.06
2023-03-31T07:16:22.379Z,10.08
2023-03-31T07:18:50.526Z,10.11
2023-03-31T07:21:18.299Z,10.11
2023-03-31T07:23:46.087Z,10.11
2023-03-31T07:26:14.031Z,10.11
2023-03-31T07:28:43.226Z,10.10
2023-03-31T07:31:14.289Z,10.12
2023-03-31T07:33:42.569Z,10.17
2023-03-31T07:36:13.407Z,10.23
2023-03-31T07:38:43.035Z,10.26
2023-03-31T07:41:14.657Z,10.28
2023-03-31T07:43:44.229Z,10.32
2023-03-31T07:46:17.493Z,10.35
2023-03-31T07:48:46.659Z,10.39
2023-03-31T07:51:15.169Z,10.40
2023-03-31T07:53:42.985Z,10.43
2023-03-31T07:56:10.855Z,10.43
2023-03-31T07:58:38.718Z,10.45
2023-03-31T08:01:09.419Z,10.46
2023-03-31T08:03:37.348Z,10.46
2023-03-31T08:06:05.611Z,10.47
2023-03-31T08:08:33.747Z,10.48
2023-03-31T08:11:01.714Z,10.49
2023-03-31T08:13:29.492Z,10.54
2023-03-31T08:15:57.534Z,10.54
2023-03-31T08:18:26.792Z,10.54
2023-03-31T08:20:54.529Z,10.58
2023-03-31T08:23:22.329Z,10.62
2023-03-31T08:25:50.081Z,10.62
2023-03-31T08:28:18.413Z,10.57
2023-03-31T08:30:46.311Z,10.56
2023-03-31T08:33:14.249Z,10.56
2023-03-31T08:35:43.438Z,10.56
2023-03-31T08:38:11.278Z,10.60
2023-03-31T08:40:42.463Z,10.65
2023-03-31T08:43:16.441Z,10.77
2023-03-31T08:45:47.734Z,10.90
2023-03-31T08:48:25.722Z,11.01
2023-03-31T08:50:59.612Z,11.10
2023-03-31T08:53:30.619Z,11.18
2023-03-31T08:55:59.954Z,11.21
2023-03-31T08:58:39.531Z,11.22
2023-03-31T09:01:17.400Z,11.24
2023-03-31T09:03:55.765Z,11.28
2023-03-31T09:06:31.377Z,11.34
2023-03-31T09:09:08.550Z,11.36
2023-03-31T09:11:39.489Z,11.44
2023-03-31T09:14:32.483Z,11.47
2023-03-31T09:17:13.570Z,11.50
2023-03-31T09:19:46.769Z,11.59
2023-03-31T09:22:21.168Z,11.65
2023-03-31T09:24:57.133Z,11.79
2023-03-31T09:27:28.425Z,11.91
2023-03-31T09:29:59.931Z,11.93
2023-03-31T09:32:31.255Z,11.96
2023-03-31T09:35:03.166Z,11.95
2023-03-31T09:37:34.018Z,11.94
2023-03-31T09:40:07.643Z,11.97
2023-03-31T09:42:36.021Z,11.96
2023-03-31T09:45:04.421Z,11.93
2023-03-31T09:47:39.160Z,11.90
2023-03-31T09:50:08.512Z,11.92
2023-03-31T09:52:43.722Z,11.99
2023-03-31T09:55:35.888Z,12.06
2023-03-31T09:58:08.089Z,12.08
2023-03-31T10:00:36.305Z,12.11
2023-03-31T10:03:07.963Z,12.14
2023-03-31T10:05:38.158Z,12.14
2023-03-31T10:08:25.942Z,12.22
2023-03-31T10:10:55.967Z,12.28
2023-03-31T10:13:26.625Z,12.32
2023-03-31T10:15:55.778Z,12.34
2023-03-31T10:18:34.489Z,12.31
2023-03-31T10:21:04.296Z,12.31
2023-03-31T10:23:36.017Z,12.34
2023-03-31T10:26:05.423Z,12.33
2023-03-31T10:28:35.991Z,12.35
2023-03-31T10:31:05.054Z,12.31
2023-03-31T10:33:35.688Z,12.34
2023-03-31T10:36:11.164Z,12.36
2023-03-31T10:38:45.271Z,12.38
2023-03-31T10:41:14.505Z,12.30
2023-03-31T10:43:44.340Z,12.28
2023-03-31T10:46:13.492Z,12.28
2023-03-31T10:48:44.463Z,12.28
2023-03-31T10:51:17.851Z,12.25
2023-03-31T10:53:48.730Z,12.24
2023-03-31T10:56:35.094Z,12.22
2023-03-31T10:59:29.718Z,12.11
2023-03-31T11:02:16.608Z,12.02
2023-03-31T11:04:58.231Z,11.91
2023-03-31T11:07:37.280Z,11.88
2023-03-31T11:10:22.634Z,11.86
2023-03-31T11:12:56.571Z,11.87
2023-03-31T11:15:30.579Z,11.86
2023-03-31T11:18:13.638Z,11.83
2023-03-31T11:20:49.452Z,11.81
2023-03-31T11:23:26.579Z,11.84
2023-03-31T11:26:03.286Z,11.87
2023-03-31T11:28:41.557Z,11.91
2023-03-31T11:31:28.621Z,11.90
2023-03-31T11:34:13.073Z,11.94
2023-03-31T11:36:52.343Z,11.94
2023-03-31T11:39:32.924Z,11.89
2023-03-31T11:42:06.576Z,11.93
2023-03-31T11:44:42.734Z,12.03
2023-03-31T11:47:16.696Z,12.02
2023-03-31T11:49:49.711Z,11.94
2023-03-31T11:52:19.744Z,11.92
2023-03-31T11:54:56.248Z,11.93
2023-03-31T11:57:32.185Z,11.93
2023-03-31T12:00:09.267Z,11.99
2023-03-31T12:02:45.163Z,12.01
2023-03-31T12:05:15.674Z,12.01
2023-03-31T12:07:47.880Z,12.06
2023-03-31T12:10:21.298Z,12.06
2023-03-31T12:12:56.499Z,11.95
2023-03-31T12:15:28.301Z,11.95
2023-03-31T12:18:01.969Z,11.98
2023-03-31T12:20:34.714Z,12.01
2023-03-31T12:23:06.445Z,12.07
2023-03-31T12:25:47.064Z,12.07
2023-03-31T12:28:17.809Z,12.02
2023-03-31T12:30:48.162Z,11.96
2023-03-31T12:33:21.231Z,11.89
2023-03-31T12:36:05.424Z,11.84
2023-03-31T12:38:49.326Z,11.83
2023-03-31T12:41:26.606Z,11.87
2023-03-31T12:44:29.749Z,11.95
2023-03-31T12:47:12.832Z,11.98
2023-03-31T12:50:04.040Z,11.95
2023-03-31T12:52:44.330Z,11.91
2023-03-31T12:55:48.544Z,11.85
2023-03-31T12:58:45.421Z,11.86
2023-03-31T13:01:19.931Z,11.87
2023-03-31T13:04:08.393Z,11.91
2023-03-31T13:06:52.567Z,11.94
2023-03-31T13:09:52.907Z,11.93
2023-03-31T13:12:23.797Z,11.95
2023-03-31T13:14:54.616Z,11.95
2023-03-31T13:17:27.375Z,11.99
2023-03-31T13:19:56.804Z,12.03
2023-03-31T13:22:37.038Z,12.07
2023-03-31T13:25:49.649Z,12.14
2023-03-31T13:28:43.094Z,12.29
2023-03-31T13:31:12.382Z,12.28
2023-03-31T13:33:48.529Z,12.33
2023-03-31T13:36:41.179Z,12.39
2023-03-31T13:39:36.430Z,12.45
2023-03-31T13:42:23.257Z,12.42
2023-03-31T13:45:11.832Z,12.35
2023-03-31T13:48:21.198Z,12.27
2023-03-31T13:51:11.256Z,12.15
2023-03-31T13:54:00.529Z,12.08
2023-03-31T13:56:46.751Z,12.00
2023-03-31T13:59:32.695Z,11.97
2023-03-31T14:02:21.266Z,11.98
2023-03-31T14:05:04.494Z,11.99
2023-03-31T14:07:39.454Z,12.01
2023-03-31T14:10:22.515Z,12.00
2023-03-31T14:12:52.685Z,11.95
2023-03-31T14:15:22.284Z,12.00
2023-03-31T14:17:50.221Z,11.97
2023-03-31T14:20:29.818Z,11.91
2023-03-31T14:23:12.076Z,11.91
2023-03-31T14:25:52.356Z,11.86
2023-03-31T14:28:46.909Z,11.79
2023-03-31T14:31:21.868Z,11.77
2023-03-31T14:34:03.813Z,11.74
2023-03-31T14:36:38.937Z,11.73
2023-03-31T14:39:12.563Z,11.68
2023-03-31T14:41:41.621Z,11.64
2023-03-31T14:44:15.846Z,11.68
2023-03-31T14:46:43.602Z,11.66
2023-03-31T14:49:21.485Z,11.58
2023-03-31T14:51:49.581Z,11.56
2023-03-31T14:54:20.733Z,11.54
2023-03-31T14:56:52.212Z,11.50
2023-03-31T14:59:25.328Z,11.46
2023-03-31T15:01:53.250Z,11.47
2023-03-31T15:04:35.254Z,11.49
2023-03-31T15:07:09.710Z,11.45
2023-03-31T15:09:39.989Z,11.44
2023-03-31T15:12:14.902Z,11.43
2023-03-31T15:14:47.155Z,11.40
2023-03-31T15:17:23.664Z,11.33
2023-03-31T15:19:56.088Z,11.33
2023-03-31T15:22:26.682Z,11.34
2023-03-31T15:24:59.109Z,11.29
2023-03-31T15:27:38.092Z,11.24
2023-03-31T15:30:09.071Z,11.20
2023-03-31T15:32:39.068Z,11.19
2023-03-31T15:35:20.904Z,11.19
2023-03-31T15:37:52.140Z,11.21
2023-03-31T15:40:24.590Z,11.23
2023-03-31T15:43:06.268Z,11.27
2023-03-31T15:45:46.102Z,11.23
2023-03-31T15:48:19.924Z,11.24
2023-03-31T15:50:47.537Z,11.25
2023-03-31T15:53:36.291Z,11.30
2023-03-31T15:56:07.551Z,11.26
2023-03-31T15:58:58.859Z,11.16
2023-03-31T16:01:32.913Z,11.17
2023-03-31T16:04:02.618Z,11.13
2023-03-31T16:06:40.778Z,11.10
2023-03-31T16:09:10.988Z,11.11
2023-03-31T16:11:45.382Z,11.10
2023-03-31T16:14:18.428Z,11.05
2023-03-31T16:16:53.789Z,11.05
2023-03-31T16:19:24.299Z,11.05
2023-03-31T16:21:55.026Z,10.97
2023-03-31T16:24:29.877Z,10.94
2023-03-31T16:27:07.815Z,10.95
2023-03-31T16:29:37.067Z,10.92
2023-03-31T16:32:11.363Z,10.94
2023-03-31T16:34:54.431Z,10.88
2023-03-31T16:37:22.247Z,10.83
2023-03-31T16:39:50.058Z,10.83
2023-03-31T16:42:19.375Z,10.84
2023-03-31T16:44:52.910Z,10.88
2023-03-31T16:47:35.062Z,10.91
2023-03-31T16:50:07.237Z,10.89
2023-03-31T16:52:35.894Z,10.88
2023-03-31T16:55:03.711Z,10.89
2023-03-31T16:57:33.202Z,10.88
2023-03-31T17:00:01.760Z,10.86
2023-03-31T17:02:29.614Z,10.84
2023-03-31T17:05:06.090Z,10.82
2023-03-31T17:07:40.762Z,10.76
2023-03-31T17:10:10.195Z,10.74
2023-03-31T17:12:39.369Z,10.71
2023-03-31T17:15:08.455Z,10.69
2023-03-31T17:17:36.809Z,10.70
2023-03-31T17:20:05.394Z,10.70
2023-03-31T17:22:33.223Z,10.68
2023-03-31T17:25:01.129Z,10.65
2023-03-31T17:27:30.065Z,10.60
2023-03-31T17:29:59.210Z,10.62
2023-03-31T17:32:27.660Z,10.60
2023-03-31T17:34:55.602Z,10.58
2023-03-31T17:37:23.911Z,10.57
2023-03-31T17:39:52.368Z,10.53
2023-03-31T17:42:20.411Z,10.55
2023-03-31T17:44:50.225Z,10.55
2023-03-31T17:47:20.456Z,10.52
2023-03-31T17:49:48.265Z,10.49
2023-03-31T17:52:16.121Z,10.48
2023-03-31T17:54:44.602Z,10.47
2023-03-31T17:57:12.396Z,10.47
2023-03-31T17:59:40.452Z,10.43
2023-03-31T18:02:08.388Z,10.42
2023-03-31T18:04:37.963Z,10.38
2023-03-31T18:07:05.914Z,10.38
2023-03-31T18:09:33.906Z,10.37
2023-03-31T18:12:01.779Z,10.38
2023-03-31T18:14:31.633Z,10.39
2023-03-31T18:16:59.402Z,10.36
2023-03-31T18:19:27.145Z,10.37
2023-03-31T18:21:56.322Z,10.34
2023-03-31T18:24:24.126Z,10.33
2023-03-31T18:26:51.966Z,10.33
2023-03-31T18:29:19.715Z,10.33
2023-03-31T18:31:47.610Z,10.33
2023-03-31T18:34:16.265Z,10.32
2023-03-31T18:36:44.653Z,10.31
2023-03-31T18:39:13.822Z,10.31
2023-03-31T18:41:46.001Z,10.31
2023-03-31T18:44:16.096Z,10.28
2023-03-31T18:46:44.137Z,10.30
2023-03-31T18:49:12.350Z,10.28
2023-03-31T18:51:40.450Z,10.21
2023-03-31T18:54:08.310Z,10.20
2023-03-31T18:56:37.624Z,10.22
2023-03-31T18:59:05.415Z,10.20
2023-03-31T19:01:35.081Z,10.21
2023-03-31T19:04:02.956Z,10.20
2023-03-31T19:06:30.680Z,10.19
2023-03-31T19:08:58.540Z,10.16
2023-03-31T19:11:27.229Z,10.16
2023-03-31T19:13:56.620Z,10.14
2023-03-31T19:16:26.837Z,10.14
2023-03-31T19:18:55.334Z,10.13
2023-03-31T19:21:24.580Z,10.09
2023-03-31T19:23:52.454Z,10.09
2023-03-31T19:26:20.985Z,10.05
2023-03-31T19:28:49.109Z,10.05
2023-03-31T19:31:22.374Z,10.06
2023-03-31T19:33:50.405Z,10.05
2023-03-31T19:36:18.444Z,10.01
2023-03-31T19:38:46.255Z,9.99
2023-03-31T19:41:14.251Z,9.99
2023-03-31T19:43:42.068Z,10.00
2023-03-31T19:46:09.958Z,10.01
2023-03-31T19:48:39.365Z,9.99
2023-03-31T19:51:08.458Z,9.98
2023-03-31T19:53:38.509Z,9.96
2023-03-31T19:56:09.048Z,9.91
2023-03-31T19:58:38.048Z,9.90
2023-03-31T20:01:08.109Z,9.91
2023-03-31T20:03:36.769Z,9.90
2023-03-31T20:06:11.761Z,9.91
2023-03-31T20:08:41.622Z,9.91
2023-03-31T20:11:12.242Z,9.86
2023-03-31T20:13:41.126Z,9.87
2023-03-31T20:16:11.744Z,9.87
2023-03-31T20:18:39.772Z,9.86
2023-03-31T20:21:11.483Z,9.85
2023-03-31T20:23:41.008Z,9.84
2023-03-31T20:26:15.540Z,9.79
2023-03-31T20:28:44.507Z,9.78
2023-03-31T20:31:14.139Z,9.78
2023-03-31T20:33:43.372Z,9.77
2023-03-31T20:36:14.557Z,9.78
2023-03-31T20:38:44.757Z,9.77
2023-03-31T20:41:12.854Z,9.77
2023-03-31T20:43:41.249Z,9.78
2023-03-31T20:46:10.591Z,9.83
2023-03-31T20:48:41.923Z,9.82
2023-03-31T20:51:14.698Z,9.80
2023-03-31T20:53:44.167Z,9.82
2023-03-31T20:56:13.399Z,9.79
2023-03-31T20:58:44.005Z,9.76
2023-03-31T21:01:12.741Z,9.75
2023-03-31T21:03:41.079Z,9.74
2023-03-31T21:06:11.952Z,9.71
2023-03-31T21:08:42.421Z,9.72
2023-03-31T21:11:10.730Z,9.72
2023-03-31T21:13:38.583Z,9.73
2023-03-31T21:16:07.015Z,9.70
2023-03-31T21:18:37.446Z,9.69
2023-03-31T21:21:07.422Z,9.67
2023-03-31T21:23:35.710Z,9.67
2023-03-31T21:26:06.726Z,9.67
2023-03-31T21:28:36.338Z,9.66
2023-03-31T21:31:06.776Z,9.69
2023-03-31T21:33:37.853Z,9.72
2023-03-31T21:36:06.644Z,9.72
2023-03-31T21:38:36.137Z,9.72
2023-03-31T21:41:08.104Z,9.70
2023-03-31T21:43:36.616Z,9.72
2023-03-31T21:46:04.707Z,9.71
2023-03-31T21:48:33.303Z,9.70
2023-03-31T21:51:02.881Z,9.73
2023-03-31T21:53:32.103Z,9.73
2023-03-31T21:56:00.020Z,9.73
2023-03-31T21:58:30.354Z,9.73
2023-03-31T22:00:59.209Z,9.73
2023-03-31T22:03:29.036Z,9.73
2023-03-31T22:05:57.091Z,9.69
2023-03-31T22:08:25.419Z,9.71
2023-03-31T22:10:53.945Z,9.73
2023-03-31T22:13:22.924Z,9.72
2023-03-31T22:15:52.143Z,9.75
2023-03-31T22:18:21.893Z,9.73
2023-03-31T22:20:50.561Z,9.71
2023-03-31T22:23:20.557Z,9.71
2023-03-31T22:25:48.318Z,9.71
2023-03-31T22:28:16.936Z,9.72
2023-03-31T22:30:45.039Z,9.70
2023-03-31T22:33:15.514Z,9.72
2023-03-31T22:35:43.343Z,9.72
2023-03-31T22:38:13.429Z,9.74
2023-03-31T22:40:41.412Z,9.76
2023-03-31T22:43:09.803Z,9.78
2023-03-31T22:45:37.883Z,9.77
2023-03-31T22:48:07.600Z,9.78
2023-03-31T22:50:37.284Z,9.80
2023-03-31T22:53:05.495Z,9.80
2023-03-31T22:55:33.522Z,9.78
2023-03-31T22:58:01.574Z,9.78
2023-03-31T23:00:29.339Z,9.79
2023-03-31T23:02:57.521Z,9.79
2023-03-31T23:05:25.499Z,9.77
2023-03-31T23:07:54.631Z,9.79
2023-03-31T23:10:22.501Z,9.81
2023-03-31T23:12:50.311Z,9.81
2023-03-31T23:15:18.226Z,9.79
2023-03-31T23:17:46.022Z,9.79
2023-03-31T23:20:14.237Z,9.78
2023-03-31T23:22:41.944Z,9.78
2023-03-31T23:25:11.570Z,9.75
2023-03-31T23:27:39.357Z,9.64
2023-03-31T23:30:08.409Z,9.63
2023-03-31T23:32:36.705Z,9.65
2023-03-31T23:35:05.354Z,9.63
2023-03-31T23:37:33.867Z,9.64
2023-03-31T23:40:01.825Z,9.63
2023-03-31T23:42:31.009Z,9.56
2023-03-31T23:44:58.760Z,9.56
2023-03-31T23:47:26.726Z,9.55
2023-03-31T23:49:56.886Z,9.55
2023-03-31T23:52:25.552Z,9.54
2023-03-31T23:54:53.364Z,9.53
2023-03-31T23:57:21.777Z,9.54
2023-03-31T23:59:52.454Z,9.54
